Terminal Aerodrome Forecast
Issued by NWS

Home | Current Version | Previous Version | Text Only | Print | Product List | Glossary On
Versions: 1 2 3 4 5 6 7 8 9 10 11 12 13 14 15 16 17 18 19 20 21 22 23 24 25 26 27 28 29 30 31 32 33 34
000
FTUS45 KBYZ 300721 AAA
TAFLVM
TAF AMD
KLVM 300721Z 3007/3106 00000KT 4SM RA BR SCT022 BKN040 OVC060
      TEMPO 3007/3009 5SM -RA BKN020 OVC040
     FM300900 10007KT P6SM OVC020
     FM301400 26010KT P6SM BKN100
     FM301800 25013G20KT P6SM VCTS SCT060CB BKN080=

USA.gov is the U.S. government's official web portal to all federal, state and local government web resources and services.